createdAt,value
2022-10-09T00:00:50.065Z,3.00
2022-10-09T00:03:17.474Z,2.97
2022-10-09T00:05:45.701Z,3.40
2022-10-09T00:08:12.436Z,3.45
2022-10-09T00:10:43.126Z,3.10
2022-10-09T00:13:10.296Z,3.13
2022-10-09T00:15:41.785Z,3.00
2022-10-09T00:18:10.267Z,3.13
2022-10-09T00:20:42.622Z,3.08
2022-10-09T00:23:09.739Z,2.58
2022-10-09T00:25:36.290Z,2.90
2022-10-09T00:28:04.588Z,2.58
2022-10-09T00:30:31.672Z,3.00
2022-10-09T00:32:58.180Z,2.80
2022-10-09T00:35:24.827Z,3.67
2022-10-09T00:37:51.303Z,2.97
2022-10-09T00:40:17.836Z,2.75
2022-10-09T00:42:45.777Z,2.45
2022-10-09T00:45:20.889Z,2.47
2022-10-09T00:47:51.127Z,3.05
2022-10-09T00:50:20.744Z,2.90
2022-10-09T00:52:50.945Z,2.97
2022-10-09T00:55:18.950Z,2.60
2022-10-09T00:57:46.275Z,2.97
2022-10-09T01:00:14.105Z,3.00
2022-10-09T01:02:40.857Z,2.65
2022-10-09T01:05:09.239Z,2.65
2022-10-09T01:07:42.958Z,3.30
2022-10-09T01:10:33.107Z,2.85
2022-10-09T01:13:12.747Z,2.60
2022-10-09T01:15:54.336Z,2.95
2022-10-09T01:18:42.059Z,3.05
2022-10-09T01:21:23.364Z,2.70
2022-10-09T01:24:23.030Z,2.80
2022-10-09T01:26:56.091Z,2.35
2022-10-09T01:29:26.795Z,2.53
2022-10-09T01:31:55.089Z,2.80
2022-10-09T01:34:24.154Z,2.35
2022-10-09T01:37:00.289Z,2.78
2022-10-09T01:39:28.763Z,2.38
2022-10-09T01:41:55.870Z,2.72
2022-10-09T01:44:31.541Z,3.00
2022-10-09T01:46:58.828Z,2.15
2022-10-09T01:49:48.565Z,2.90
2022-10-09T01:52:46.991Z,2.10
2022-10-09T01:55:38.863Z,3.10
2022-10-09T01:58:14.621Z,2.47
2022-10-09T02:00:54.629Z,2.78
2022-10-09T02:03:23.590Z,2.40
2022-10-09T02:05:53.055Z,2.72
2022-10-09T02:08:22.376Z,2.60
2022-10-09T02:10:53.420Z,2.67
2022-10-09T02:13:20.866Z,2.35
2022-10-09T02:15:52.870Z,2.40
2022-10-09T02:18:28.347Z,2.50
2022-10-09T02:21:00.415Z,2.47
2022-10-09T02:23:28.899Z,2.80
2022-10-09T02:25:55.718Z,3.40
2022-10-09T02:28:22.357Z,2.40
2022-10-09T02:30:56.379Z,2.45
2022-10-09T02:33:33.450Z,3.00
2022-10-09T02:36:01.073Z,2.22
2022-10-09T02:38:27.784Z,3.03
2022-10-09T02:41:00.643Z,2.05
2022-10-09T02:43:27.924Z,2.75
2022-10-09T02:45:55.002Z,2.92
2022-10-09T02:48:21.721Z,2.85
2022-10-09T02:50:48.248Z,2.97
2022-10-09T02:53:14.712Z,2.83
2022-10-09T02:55:41.289Z,3.22
2022-10-09T02:58:07.763Z,2.58
2022-10-09T03:00:34.287Z,2.35
2022-10-09T03:03:00.865Z,2.95
2022-10-09T03:05:27.491Z,2.60
2022-10-09T03:07:53.944Z,2.55
2022-10-09T03:10:21.369Z,2.70
2022-10-09T03:12:48.574Z,2.50
2022-10-09T03:15:15.735Z,3.17
2022-10-09T03:17:42.199Z,2.85
2022-10-09T03:20:09.721Z,2.45
2022-10-09T03:22:36.294Z,3.20
2022-10-09T03:25:02.760Z,2.85
2022-10-09T03:27:30.842Z,3.33
2022-10-09T03:29:58.593Z,3.20
2022-10-09T03:32:25.223Z,2.63
2022-10-09T03:34:51.926Z,3.40
2022-10-09T03:37:18.565Z,3.13
2022-10-09T03:39:45.070Z,3.05
2022-10-09T03:42:11.658Z,2.90
2022-10-09T03:44:38.151Z,2.85
2022-10-09T03:47:04.692Z,3.13
2022-10-09T03:49:31.190Z,2.95
2022-10-09T03:51:57.694Z,3.53
2022-10-09T03:54:24.197Z,3.75
2022-10-09T03:56:50.662Z,3.55
2022-10-09T03:59:17.116Z,3.25
2022-10-09T04:01:43.609Z,2.70
2022-10-09T04:04:10.090Z,3.28
2022-10-09T04:06:39.059Z,4.28
2022-10-09T04:09:05.668Z,3.90
2022-10-09T04:11:32.230Z,3.30
2022-10-09T04:13:58.848Z,3.80
2022-10-09T04:16:25.327Z,3.53
2022-10-09T04:18:52.054Z,3.85
2022-10-09T04:21:18.772Z,3.70
2022-10-09T04:23:45.580Z,3.80
2022-10-09T04:26:13.114Z,3.83
2022-10-09T04:28:39.731Z,4.80
2022-10-09T04:31:06.498Z,4.03
2022-10-09T04:33:33.159Z,4.80
2022-10-09T04:35:59.681Z,4.80
2022-10-09T04:38:26.572Z,4.90
2022-10-09T04:41:03.702Z,5.65
2022-10-09T04:43:30.584Z,5.28
2022-10-09T04:45:57.176Z,4.55
2022-10-09T04:48:24.130Z,6.03
2022-10-09T04:50:50.805Z,6.40
2022-10-09T04:53:17.654Z,6.03
2022-10-09T04:55:45.056Z,6.65
2022-10-09T04:58:13.345Z,7.07
2022-10-09T05:00:45.095Z,6.38
2022-10-09T05:03:12.340Z,7.07
2022-10-09T05:05:38.952Z,7.45
2022-10-09T05:08:05.841Z,8.10
2022-10-09T05:10:32.852Z,8.15
2022-10-09T05:12:59.746Z,8.48
2022-10-09T05:15:26.506Z,8.70
2022-10-09T05:17:53.014Z,8.32
2022-10-09T05:20:19.629Z,8.20
2022-10-09T05:22:47.678Z,7.65
2022-10-09T05:25:15.223Z,8.43
2022-10-09T05:27:42.158Z,8.82
2022-10-09T05:30:09.496Z,9.02
2022-10-09T05:32:36.155Z,8.77
2022-10-09T05:35:04.437Z,8.73
2022-10-09T05:37:31.073Z,9.13
2022-10-09T05:39:57.493Z,8.73
2022-10-09T05:42:23.985Z,9.20
2022-10-09T05:44:50.533Z,9.10
2022-10-09T05:47:18.107Z,9.55
2022-10-09T05:49:44.638Z,9.85
2022-10-09T05:52:11.168Z,9.15
2022-10-09T05:54:37.779Z,9.73
2022-10-09T05:57:04.992Z,10.10
2022-10-09T05:59:31.659Z,9.98
2022-10-09T06:01:59.303Z,9.90
2022-10-09T06:04:25.918Z,9.98
2022-10-09T06:06:52.395Z,10.18
2022-10-09T06:09:23.206Z,11.23
2022-10-09T06:11:51.275Z,10.15
2022-10-09T06:14:18.079Z,11.18
2022-10-09T06:16:45.745Z,10.93
2022-10-09T06:19:15.033Z,10.63
2022-10-09T06:21:42.001Z,10.27
2022-10-09T06:24:08.697Z,11.18
2022-10-09T06:26:35.273Z,10.45
2022-10-09T06:29:02.554Z,12.55
2022-10-09T06:31:31.590Z,11.05
2022-10-09T06:33:59.982Z,11.15
2022-10-09T06:36:28.949Z,11.48
2022-10-09T06:38:55.993Z,10.20
2022-10-09T06:41:24.995Z,11.57
2022-10-09T06:43:55.707Z,9.93
2022-10-09T06:46:25.182Z,10.98
2022-10-09T06:48:52.239Z,11.52
2022-10-09T06:51:21.620Z,10.75
2022-10-09T06:53:51.083Z,12.13
2022-10-09T06:56:19.293Z,11.60
2022-10-09T06:58:46.537Z,10.93
2022-10-09T07:01:24.813Z,11.02
2022-10-09T07:03:57.217Z,10.82
2022-10-09T07:06:27.248Z,12.48
2022-10-09T07:08:58.749Z,11.55
2022-10-09T07:11:33.104Z,11.68
2022-10-09T07:14:01.884Z,12.38
2022-10-09T07:16:39.120Z,12.32
2022-10-09T07:19:08.271Z,11.20
2022-10-09T07:21:35.848Z,10.60
2022-10-09T07:24:04.986Z,10.07
2022-10-09T07:26:34.137Z,11.90
2022-10-09T07:29:01.315Z,10.88
2022-10-09T07:31:27.930Z,11.00
2022-10-09T07:33:56.904Z,10.70
2022-10-09T07:36:24.036Z,11.35
2022-10-09T07:38:56.221Z,10.68
2022-10-09T07:41:24.246Z,10.35
2022-10-09T07:43:50.831Z,10.55
2022-10-09T07:46:19.895Z,10.20
2022-10-09T07:48:47.166Z,9.85
2022-10-09T07:51:17.085Z,10.40
2022-10-09T07:53:47.580Z,10.20
2022-10-09T07:56:18.865Z,10.98
2022-10-09T07:58:50.398Z,10.10
2022-10-09T08:01:20.390Z,11.05
2022-10-09T08:03:49.518Z,10.63
2022-10-09T08:06:19.160Z,10.02
2022-10-09T08:08:50.347Z,10.95
2022-10-09T08:11:19.229Z,11.00
2022-10-09T08:13:50.127Z,10.80
2022-10-09T08:16:20.998Z,10.38
2022-10-09T08:18:49.072Z,10.35
2022-10-09T08:21:19.961Z,13.95
2022-10-09T08:23:47.214Z,15.20
2022-10-09T08:26:16.223Z,16.05
2022-10-09T08:28:43.300Z,17.08
2022-10-09T08:31:14.397Z,17.02
2022-10-09T08:33:41.695Z,16.02
2022-10-09T08:36:10.580Z,15.98
2022-10-09T08:38:47.022Z,17.13
2022-10-09T08:41:21.254Z,14.93
2022-10-09T08:43:52.532Z,15.82
2022-10-09T08:46:48.746Z,13.73
2022-10-09T08:49:36.644Z,13.85
2022-10-09T08:52:23.325Z,14.10
2022-10-09T08:54:50.855Z,13.90
2022-10-09T08:57:17.815Z,12.45
2022-10-09T08:59:45.007Z,12.23
2022-10-09T09:02:45.961Z,12.52
2022-10-09T09:05:28.737Z,11.90
2022-10-09T09:08:13.361Z,13.05
2022-10-09T09:10:53.071Z,12.15
2022-10-09T09:13:38.279Z,13.27
2022-10-09T09:16:24.213Z,14.77
2022-10-09T09:19:40.330Z,10.93
2022-10-09T09:22:14.137Z,12.02
2022-10-09T09:24:53.170Z,11.25
2022-10-09T09:27:24.701Z,12.02
2022-10-09T09:33:36.142Z,13.90
2022-10-09T09:36:10.536Z,10.75
2022-10-09T09:41:25.104Z,10.93
2022-10-09T09:43:51.833Z,11.50
2022-10-09T09:46:22.897Z,9.57
2022-10-09T09:48:50.204Z,9.43
2022-10-09T09:51:28.571Z,9.88
2022-10-09T09:54:00.867Z,10.15
2022-10-09T09:59:46.897Z,8.80
2022-10-09T10:02:20.181Z,8.38
2022-10-09T10:04:58.497Z,7.82
2022-10-09T10:11:18.708Z,8.52
2022-10-09T10:13:52.133Z,10.48
2022-10-09T10:16:27.673Z,9.35
2022-10-09T10:18:58.181Z,7.40
2022-10-09T10:21:24.895Z,8.15
2022-10-09T10:26:37.632Z,8.63
2022-10-09T10:29:18.827Z,8.80
2022-10-09T10:31:59.915Z,8.45
2022-10-09T10:34:29.574Z,7.25
2022-10-09T10:37:13.168Z,7.72
2022-10-09T10:39:50.310Z,15.60
2022-10-09T10:42:24.946Z,19.20
2022-10-09T10:45:03.891Z,18.48
2022-10-09T10:47:34.808Z,16.65
2022-10-09T10:50:01.681Z,15.05
2022-10-09T10:52:49.454Z,12.60
2022-10-09T10:55:27.901Z,10.07
2022-10-09T10:58:11.859Z,9.27
2022-10-09T11:00:43.455Z,8.90
2022-10-09T11:03:34.456Z,8.00
2022-10-09T11:06:12.575Z,7.32
2022-10-09T11:08:56.639Z,3.65
2022-10-09T11:11:58.568Z,2.67
2022-10-09T11:14:45.951Z,2.20
2022-10-09T11:17:35.613Z,1.92
2022-10-09T11:20:11.252Z,2.40
2022-10-09T11:22:59.461Z,2.20
2022-10-09T11:25:56.838Z,2.10
2022-10-09T11:28:37.840Z,2.60
2022-10-09T11:31:12.465Z,2.00
2022-10-09T11:33:44.751Z,2.53
2022-10-09T11:36:17.026Z,2.80
2022-10-09T11:38:51.737Z,2.10
2022-10-09T11:41:19.485Z,2.13
2022-10-09T11:43:51.903Z,2.53
2022-10-09T11:46:33.834Z,2.50
2022-10-09T11:49:22.081Z,2.00
2022-10-09T11:52:27.676Z,2.15
2022-10-09T11:54:54.309Z,2.20
2022-10-09T11:57:30.462Z,1.90
2022-10-09T12:00:08.305Z,1.88
2022-10-09T12:02:36.075Z,2.15
2022-10-09T12:05:16.573Z,2.40
2022-10-09T12:07:43.123Z,2.33
2022-10-09T12:10:25.797Z,1.92
2022-10-09T12:12:59.755Z,2.22
2022-10-09T12:15:54.002Z,1.95
2022-10-09T12:18:28.805Z,1.75
2022-10-09T12:20:59.815Z,1.80
2022-10-09T12:23:30.342Z,2.10
2022-10-09T12:25:57.771Z,2.20
2022-10-09T12:28:24.266Z,1.83
2022-10-09T12:30:51.892Z,2.13
2022-10-09T12:33:27.833Z,2.92
2022-10-09T12:36:03.720Z,1.67
2022-10-09T12:38:32.007Z,1.90
2022-10-09T12:41:05.884Z,2.05
2022-10-09T12:43:33.673Z,2.42
2022-10-09T12:46:01.186Z,2.25
2022-10-09T12:48:31.778Z,2.00
2022-10-09T12:50:58.282Z,2.03
2022-10-09T12:53:31.005Z,1.70
2022-10-09T12:56:00.611Z,1.58
2022-10-09T12:58:33.608Z,1.95
2022-10-09T13:01:02.247Z,2.17
2022-10-09T13:03:36.943Z,2.08
2022-10-09T13:06:27.178Z,1.70
2022-10-09T13:09:01.458Z,2.00
2022-10-09T13:11:41.457Z,1.83
2022-10-09T13:14:24.473Z,2.25
2022-10-09T13:16:51.642Z,2.13
2022-10-09T13:19:30.889Z,2.13
2022-10-09T13:22:20.353Z,1.60
2022-10-09T13:24:50.160Z,2.22
2022-10-09T13:27:19.519Z,2.08
2022-10-09T13:29:47.433Z,2.05
2022-10-09T13:32:17.958Z,1.77
2022-10-09T13:34:45.636Z,1.85
2022-10-09T13:37:20.022Z,2.00
2022-10-09T13:39:47.257Z,1.70
2022-10-09T13:42:16.509Z,2.40
2022-10-09T13:44:43.234Z,2.03
2022-10-09T13:47:11.061Z,1.90
2022-10-09T13:49:37.521Z,2.58
2022-10-09T13:52:04.098Z,2.05
2022-10-09T13:54:30.574Z,2.40
2022-10-09T13:56:57.010Z,2.80
2022-10-09T13:59:24.502Z,2.30
2022-10-09T14:01:51.616Z,2.50
2022-10-09T14:04:18.214Z,2.92
2022-10-09T14:06:45.283Z,2.78
2022-10-09T14:09:11.702Z,3.08
2022-10-09T14:11:38.133Z,2.70
2022-10-09T14:14:04.650Z,3.47
2022-10-09T14:16:31.339Z,2.80
2022-10-09T14:19:02.864Z,3.00
2022-10-09T14:21:29.990Z,3.08
2022-10-09T14:24:00.724Z,3.30
2022-10-09T14:26:27.899Z,3.70
2022-10-09T14:28:58.103Z,3.03
2022-10-09T14:31:24.596Z,4.15
2022-10-09T14:33:56.512Z,3.20
2022-10-09T14:36:23.214Z,3.00
2022-10-09T14:38:50.032Z,3.28
2022-10-09T14:41:18.181Z,3.55
2022-10-09T14:43:45.838Z,3.20
2022-10-09T14:46:16.967Z,4.00
2022-10-09T14:48:45.517Z,3.40
2022-10-09T14:51:15.205Z,3.22
2022-10-09T14:53:42.116Z,3.38
2022-10-09T14:56:12.118Z,3.67
2022-10-09T14:58:39.505Z,3.58
2022-10-09T15:01:06.963Z,3.58
2022-10-09T15:03:35.051Z,3.72
2022-10-09T15:06:07.009Z,3.88
2022-10-09T15:08:35.311Z,3.92
2022-10-09T15:11:02.899Z,3.92
2022-10-09T15:13:29.885Z,4.20
2022-10-09T15:16:00.847Z,3.50
2022-10-09T15:18:28.296Z,4.38
2022-10-09T15:20:54.782Z,3.75
2022-10-09T15:23:21.407Z,3.50
2022-10-09T15:25:52.503Z,4.00
2022-10-09T15:28:19.557Z,3.70
2022-10-09T15:30:47.695Z,3.55
2022-10-09T15:33:14.278Z,3.83
2022-10-09T15:35:40.737Z,4.00
2022-10-09T15:38:07.659Z,4.53
2022-10-09T15:40:54.357Z,3.85
2022-10-09T15:43:23.559Z,3.47
2022-10-09T15:45:50.385Z,7.07
2022-10-09T15:48:22.596Z,3.85
2022-10-09T15:50:52.073Z,3.88
2022-10-09T15:53:21.501Z,4.82
2022-10-09T15:55:50.382Z,4.45
2022-10-09T15:58:17.942Z,5.47
2022-10-09T16:00:50.140Z,4.60
2022-10-09T16:03:17.902Z,4.72
2022-10-09T16:05:48.836Z,4.65
2022-10-09T16:08:17.461Z,4.50
2022-10-09T16:10:48.874Z,3.78
2022-10-09T16:13:15.792Z,5.60
2022-10-09T16:15:43.195Z,5.03
2022-10-09T16:18:10.934Z,5.75
2022-10-09T16:20:39.311Z,4.50
2022-10-09T16:23:06.888Z,5.45
2022-10-09T16:25:33.833Z,8.07
2022-10-09T16:28:00.802Z,5.15
2022-10-09T16:30:27.676Z,4.00
2022-10-09T16:32:54.278Z,4.53
2022-10-09T16:35:22.256Z,4.72
2022-10-09T16:37:48.750Z,4.45
2022-10-09T16:40:15.362Z,4.00
2022-10-09T16:42:41.786Z,4.32
2022-10-09T16:45:09.119Z,4.80
2022-10-09T16:47:35.546Z,3.67
2022-10-09T16:50:02.033Z,4.10
2022-10-09T16:52:28.698Z,3.97
2022-10-09T16:54:59.583Z,3.90
2022-10-09T16:57:26.894Z,3.80
2022-10-09T16:59:53.325Z,3.60
2022-10-09T17:02:19.804Z,4.22
2022-10-09T17:04:46.649Z,4.10
2022-10-09T17:07:13.853Z,4.13
2022-10-09T17:09:40.567Z,4.60
2022-10-09T17:12:09.696Z,4.45
2022-10-09T17:14:37.276Z,4.00
2022-10-09T17:17:04.897Z,4.47
2022-10-09T17:19:32.924Z,4.68
2022-10-09T17:22:00.782Z,4.55
2022-10-09T17:24:28.339Z,4.88
2022-10-09T17:26:54.970Z,4.88
2022-10-09T17:29:22.001Z,5.20
2022-10-09T17:31:53.821Z,5.13
2022-10-09T17:34:22.398Z,4.30
2022-10-09T17:36:48.935Z,4.90
2022-10-09T17:39:17.051Z,4.05
2022-10-09T17:41:45.848Z,4.60
2022-10-09T17:44:13.298Z,3.65
2022-10-09T17:46:39.741Z,4.20
2022-10-09T17:49:06.687Z,4.60
2022-10-09T17:51:39.505Z,4.00
2022-10-09T17:54:12.234Z,4.63
2022-10-09T17:56:39.317Z,4.47
2022-10-09T17:59:06.119Z,4.32
2022-10-09T18:01:33.536Z,4.80
2022-10-09T18:04:00.140Z,5.45
2022-10-09T18:06:27.695Z,5.18
2022-10-09T18:08:55.957Z,4.90
2022-10-09T18:11:24.369Z,4.25
2022-10-09T18:13:51.269Z,5.00
2022-10-09T18:16:22.503Z,4.57
2022-10-09T18:18:49.318Z,4.93
2022-10-09T18:21:17.004Z,4.78
2022-10-09T18:23:45.720Z,5.20
2022-10-09T18:26:15.191Z,5.00
2022-10-09T18:28:44.710Z,4.70
2022-10-09T18:31:17.848Z,4.83
2022-10-09T18:33:44.720Z,4.93
2022-10-09T18:36:19.549Z,4.75
2022-10-09T18:38:58.865Z,4.40
2022-10-09T18:41:32.900Z,5.50
2022-10-09T18:44:06.645Z,4.72
2022-10-09T18:46:47.311Z,5.03
2022-10-09T18:49:16.935Z,4.60
2022-10-09T18:51:45.401Z,4.72
2022-10-09T18:54:17.981Z,5.53
2022-10-09T18:56:45.128Z,5.88
2022-10-09T18:59:15.057Z,5.03
2022-10-09T19:01:41.514Z,5.57
2022-10-09T19:04:08.607Z,5.07
2022-10-09T19:06:35.540Z,4.88
2022-10-09T19:09:02.294Z,5.53
2022-10-09T19:11:30.671Z,5.18
2022-10-09T19:14:01.960Z,5.40
2022-10-09T19:16:30.147Z,4.78
2022-10-09T19:18:56.953Z,5.28
2022-10-09T19:21:23.708Z,5.30
2022-10-09T19:23:52.813Z,5.13
2022-10-09T19:26:21.841Z,5.07
2022-10-09T19:28:49.072Z,5.63
2022-10-09T19:31:15.793Z,5.70
2022-10-09T19:33:42.775Z,5.78
2022-10-09T19:36:12.294Z,5.50
2022-10-09T19:38:39.062Z,6.07
2022-10-09T19:41:14.583Z,5.57
2022-10-09T19:43:41.806Z,5.32
2022-10-09T19:46:14.467Z,5.22
2022-10-09T19:48:41.228Z,5.57
2022-10-09T19:51:10.793Z,5.97
2022-10-09T19:53:37.556Z,6.15
2022-10-09T19:56:17.515Z,5.88
2022-10-09T19:58:46.188Z,6.30
2022-10-09T20:01:19.190Z,5.60
2022-10-09T20:03:46.536Z,6.32
2022-10-09T20:06:13.378Z,5.72
2022-10-09T20:08:42.149Z,5.93
2022-10-09T20:11:11.346Z,5.70
2022-10-09T20:13:39.200Z,5.20
2022-10-09T20:16:08.871Z,5.97
2022-10-09T20:18:35.456Z,5.28
2022-10-09T20:21:01.986Z,6.30
2022-10-09T20:23:28.435Z,6.22
2022-10-09T20:26:02.980Z,5.63
2022-10-09T20:28:32.071Z,5.70
2022-10-09T20:31:00.634Z,5.88
2022-10-09T20:33:27.521Z,5.75
2022-10-09T20:35:54.008Z,5.95
2022-10-09T20:38:25.398Z,5.68
2022-10-09T20:40:52.719Z,5.53
2022-10-09T20:43:19.484Z,5.78
2022-10-09T20:45:46.078Z,6.25
2022-10-09T20:48:12.557Z,6.50
2022-10-09T20:50:40.589Z,6.20
2022-10-09T20:53:07.934Z,6.15
2022-10-09T20:55:34.699Z,5.95
2022-10-09T20:58:01.908Z,6.50
2022-10-09T21:00:28.845Z,6.60
2022-10-09T21:02:55.881Z,6.10
2022-10-09T21:05:22.379Z,6.00
2022-10-09T21:07:48.873Z,5.18
2022-10-09T21:10:15.611Z,6.70
2022-10-09T21:12:42.219Z,6.13
2022-10-09T21:15:09.043Z,6.50
2022-10-09T21:17:35.569Z,6.40
2022-10-09T21:20:02.283Z,6.57
2022-10-09T21:22:28.746Z,6.38
2022-10-09T21:24:55.341Z,6.95
2022-10-09T21:27:21.902Z,6.53
2022-10-09T21:29:48.496Z,6.47
2022-10-09T21:32:15.030Z,6.55
2022-10-09T21:34:42.004Z,6.15
2022-10-09T21:37:21.815Z,6.10
2022-10-09T21:39:48.824Z,6.65
2022-10-09T21:42:15.563Z,7.60
2022-10-09T21:44:42.458Z,6.78
2022-10-09T21:47:41.016Z,7.32
2022-10-09T21:50:07.871Z,7.00
2022-10-09T21:52:34.465Z,7.30
2022-10-09T21:55:00.970Z,6.65
2022-10-09T21:57:27.529Z,6.57
2022-10-09T21:59:53.998Z,6.80
2022-10-09T22:02:20.510Z,6.57
2022-10-09T22:04:47.052Z,6.93
2022-10-09T22:07:13.497Z,7.05
2022-10-09T22:09:40.155Z,6.75
2022-10-09T22:12:06.614Z,6.53
2022-10-09T22:14:33.282Z,6.43
2022-10-09T22:16:59.954Z,6.97
2022-10-09T22:19:26.584Z,6.93
2022-10-09T22:21:53.271Z,7.15
2022-10-09T22:24:19.797Z,6.65
2022-10-09T22:26:46.845Z,6.93
2022-10-09T22:29:13.472Z,6.68
2022-10-09T22:31:39.994Z,6.60
2022-10-09T22:34:06.535Z,6.75
2022-10-09T22:36:33.817Z,6.38
2022-10-09T22:39:02.969Z,6.70
2022-10-09T22:41:30.756Z,6.85
2022-10-09T22:43:59.191Z,6.97
2022-10-09T22:46:27.883Z,6.53
2022-10-09T22:48:55.083Z,7.35
2022-10-09T22:51:23.955Z,7.82
2022-10-09T22:53:50.504Z,7.00
2022-10-09T22:56:23.103Z,6.47
2022-10-09T22:58:51.739Z,7.10
2022-10-09T23:01:27.209Z,6.95
2022-10-09T23:03:53.762Z,6.95
2022-10-09T23:06:20.415Z,6.82
2022-10-09T23:08:48.572Z,7.60
2022-10-09T23:11:15.997Z,7.20
2022-10-09T23:13:42.950Z,7.68
2022-10-09T23:16:12.380Z,7.80
2022-10-09T23:18:39.915Z,7.80
2022-10-09T23:21:09.523Z,7.22
2022-10-09T23:23:36.257Z,7.57
2022-10-09T23:26:12.837Z,7.13
2022-10-09T23:28:40.425Z,7.70
2022-10-09T23:31:10.816Z,6.93
2022-10-09T23:33:42.067Z,7.43
2022-10-09T23:36:10.573Z,7.93
2022-10-09T23:38:37.506Z,7.43
2022-10-09T23:41:10.581Z,6.55
2022-10-09T23:43:39.428Z,7.10
2022-10-09T23:46:08.873Z,7.47
2022-10-09T23:48:36.229Z,6.97
2022-10-09T23:51:05.116Z,7.47
2022-10-09T23:53:31.658Z,7.60
2022-10-09T23:55:58.144Z,7.40
2022-10-09T23:58:24.906Z,7.00
